Flight Track Log - Related Links

Times and Time Zones

All times are in EDT time to prevent confusion due to time zone crossing. See the AWE88 flight status page for this flight to view local times or setup timezone preferences in your user account.

Time Position Orientation Groundspeed Altitude Reporting Facility
EDT Latitude Longitude Course Direction KTS MPH feet Rate Location/Type
Sat 01:29:15 PM 33.4531 -112.0369 103° East  Level FlightAware Approximate
Sat 01:30:15 PM 33.5618 -112.0747 137° Southeast  Level FlightAware Approximate
Sat 01:31:10 PM 33.4333 -111.9333 76° East 207 238 3,100  Level Phoenix TRACON
Sat 01:32:10 PM 33.4500 -111.8500 54° Northeast 254 292 4,900 2,200 Climbing Phoenix TRACON
Sat 01:33:10 PM 33.5000 -111.7667 29° Northeast 279 321 7,500 2,500 Climbing Phoenix TRACON
Sat 01:34:10 PM 33.5500 -111.7333 311° West 292 336 9,900 1,817 Climbing Phoenix TRACON
Sat 01:36:05 PM 33.6547 -111.8789 317° Northwest 339 390 12,800 1,783 Climbing Albuquerque Center
Sat 01:37:05 PM 33.7306 -111.9653 314° West 349 402 15,100 2,350 Climbing Albuquerque Center
Sat 01:38:05 PM 33.8083 -112.0619 315° West 360 414 17,500 2,150 Climbing Albuquerque Center
Sat 01:39:05 PM 33.8739 -112.1408 315° West 365 420 19,400 1,850 Climbing Albuquerque Center
Sat 01:40:05 PM 33.9575 -112.2431 314° West 377 434 21,200 1,600 Climbing Albuquerque Center
Sat 01:41:05 PM 34.0250 -112.3275 332° Northwest 387 445 22,600 1,450 Climbing Albuquerque Center
Sat 01:42:05 PM 34.1347 -112.3967 331° Northwest 395 455 24,100 1,400 Climbing Albuquerque Center
Sat 01:43:05 PM 34.2261 -112.4575 332° Northwest 401 461 25,400 1,300 Climbing Albuquerque Center
Sat 01:44:05 PM 34.3275 -112.5217 333° Northwest 406 467 26,700 1,200 Climbing Albuquerque Center
Sat 01:45:05 PM 34.4311 -112.5861 333° Northwest 406 467 27,800 1,000 Climbing Albuquerque Center
Sat 01:46:05 PM 34.5369 -112.6508 332° Northwest 411 473 28,700 950 Climbing Albuquerque Center
Sat 01:47:05 PM 34.6464 -112.7208 318° Northwest 422 486 29,700 900 Climbing Albuquerque Center
Sat 01:48:05 PM 34.7358 -112.8178 301° West 427 491 30,500 900 Climbing Albuquerque Center
Sat 01:49:05 PM 34.7989 -112.9461 301° West 427 491 31,500 950 Climbing Albuquerque Center
Sat 01:50:05 PM 34.8617 -113.0744 299° West 438 504 32,400 815 Climbing Albuquerque Center
Sat 01:51:47 PM 34.9608 -113.2953 296° West 466 536 33,700 857 Climbing Los Angeles Center
Sat 01:52:46 PM 35.0139 -113.4278 291° West 445 512 34,700 908 Climbing Los Angeles Center
Sat 01:53:46 PM 35.0564 -113.5661 291° West 434 499 35,500 650 Climbing Los Angeles Center
Sat 01:54:46 PM 35.0989 -113.7017 291° West 429 494 36,000 248 Climbing Los Angeles Center
Sat 01:55:47 PM 35.1411 -113.8378 294° West 429 494 36,000  Level Los Angeles Center
Sat 01:56:46 PM 35.1872 -113.9633 292° West 422 486 36,000  Level Los Angeles Center
Sat 01:57:47 PM 35.2333 -114.1022 290° West 422 486 36,000  Level Los Angeles Center
Sat 01:58:47 PM 35.2753 -114.2411 292° West 429 494 36,000  Level Los Angeles Center
Sat 01:59:46 PM 35.3192 -114.3775 290° West 429 494 36,000  Level Los Angeles Center
Sat 02:00:46 PM 35.3606 -114.5167 292° West 429 494 36,000  Level Los Angeles Center
Sat 02:01:47 PM 35.4042 -114.6508 294° West 429 494 36,000  Level Los Angeles Center
Sat 02:02:47 PM 35.4536 -114.7853 306° West 429 494 36,000  Level Los Angeles Center
Sat 02:03:47 PM 35.5236 -114.9039 312° West 423 487 36,000  Level Los Angeles Center
Sat 02:04:47 PM 35.6039 -115.0153 312° West 432 497 36,000  Level Los Angeles Center
Sat 02:05:47 PM 35.6842 -115.1267 310° West 437 503 36,000  Level Los Angeles Center
Sat 02:06:46 PM 35.7581 -115.2358 311° West 437 503 36,000  Level Los Angeles Center
Sat 02:07:47 PM 35.8381 -115.3503 311° West 432 497 36,000  Level Los Angeles Center
Sat 02:08:46 PM 35.9181 -115.4647 311° West 432 497 36,000  Level Los Angeles Center
Sat 02:09:47 PM 35.9981 -115.5797 310° West 432 497 36,000  Level Los Angeles Center
Sat 02:10:47 PM 36.0839 -115.7050 312° West 437 503 36,000  Level Los Angeles Center
Sat 02:11:47 PM 36.1572 -115.8075 311° West 437 503 36,000  Level Los Angeles Center
Sat 02:12:47 PM 36.2431 -115.9308 309° West 432 497 36,000  Level Los Angeles Center
Sat 02:13:47 PM 36.3119 -116.0361 312° West 432 497 36,000  Level Los Angeles Center
Sat 02:14:47 PM 36.3914 -116.1472 311° West 432 497 36,000  Level Los Angeles Center
Sat 02:15:47 PM 36.4747 -116.2658 309° West 427 491 36,000  Level Los Angeles Center
Sat 02:16:47 PM 36.5456 -116.3744 310° West 427 491 36,000  Level Los Angeles Center
Sat 02:17:47 PM 36.6222 -116.4886 311° West 432 497 36,000  Level Los Angeles Center
Sat 02:18:47 PM 36.7011 -116.6031 309° West 432 497 36,000  Level Los Angeles Center
Sat 02:19:47 PM 36.7778 -116.7200 320° Northwest 432 497 36,000  Level Los Angeles Center
Sat 02:20:47 PM 36.8692 -116.8169 323° Northwest 427 491 36,000  Level Los Angeles Center
Sat 02:22:22 PM 37.0247 -116.9622 322° Northwest 434 499 36,000  Level Oakland Center
Sat 02:23:22 PM 37.1217 -117.0558 324° Northwest 439 505 36,000  Level Oakland Center
Sat 02:24:22 PM 37.2183 -117.1447 327° Northwest 439 505 36,000  Level Oakland Center
Sat 02:25:22 PM 37.3192 -117.2283 326° Northwest 439 505 36,000  Level Oakland Center
Sat 02:26:22 PM 37.4200 -117.3150 326° Northwest 439 505 36,000  Level Oakland Center
Sat 02:27:22 PM 37.5208 -117.4017 325° Northwest 439 505 36,000  Level Oakland Center
Sat 02:28:22 PM 37.6322 -117.4986 327° Northwest 439 505 36,000  Level Oakland Center
Sat 02:29:22 PM 37.7347 -117.5831 325° Northwest 444 511 36,000  Level Oakland Center
Sat 02:30:22 PM 37.8331 -117.6706 325° Northwest 444 511 36,000  Level Oakland Center
Sat 02:31:22 PM 37.9358 -117.7608 326° Northwest 444 511 36,000  Level Oakland Center
Sat 02:32:22 PM 38.0361 -117.8461 326° Northwest 444 511 36,000  Level Oakland Center
Sat 02:33:23 PM 38.1364 -117.9317 327° Northwest 439 505 36,000  Level Oakland Center
Sat 02:34:23 PM 38.2389 -118.0172 323° Northwest 439 505 36,000  Level Oakland Center
Sat 02:35:22 PM 38.3328 -118.1061 325° Northwest 439 505 36,000  Level Oakland Center
Sat 02:36:22 PM 38.4331 -118.1950 325° Northwest 431 496 36,000  Level Oakland Center
Sat 02:37:22 PM 38.5331 -118.2842 325° Northwest 436 502 36,000  Level Oakland Center
Sat 02:38:22 PM 38.6311 -118.3733 325° Northwest 436 502 36,000  Level Oakland Center
Sat 02:39:22 PM 38.7308 -118.4631 326° Northwest 436 502 36,000  Level Oakland Center
Sat 02:40:22 PM 38.8328 -118.5500 324° Northwest 436 502 36,000  Level Oakland Center
Sat 02:41:22 PM 38.9200 -118.6300 325° Northwest 436 502 36,000  Level Oakland Center
Sat 02:42:22 PM 39.0219 -118.7228 324° Northwest 436 502 36,000  Level Oakland Center
Sat 02:43:22 PM 39.1175 -118.8136 328° Northwest 436 502 36,000  Level Oakland Center
Sat 02:44:22 PM 39.2339 -118.9092 326° Northwest 451 519 36,000  Level Oakland Center
Sat 02:45:22 PM 39.3228 -118.9872 325° Northwest 451 519 36,000  Level Oakland Center
Sat 02:46:22 PM 39.4222 -119.0783 321° Northwest 446 513 36,000  Level Oakland Center
Sat 02:47:22 PM 39.5178 -119.1781 325° Northwest 441 507 36,000  Level Oakland Center
Sat 02:48:22 PM 39.6150 -119.2672 325° Northwest 441 507 36,000  Level Oakland Center
Sat 02:49:23 PM 39.7142 -119.3567 325° Northwest 441 507 36,000  Level Oakland Center
Sat 02:50:22 PM 39.8133 -119.4464 331° Northwest 441 507 36,000  Level Oakland Center
Sat 02:51:22 PM 39.9228 -119.5253 332° Northwest 441 507 36,000  Level Oakland Center
Sat 02:52:23 PM 40.0319 -119.6017 332° Northwest 441 507 36,000  Level Oakland Center
Sat 02:53:22 PM 40.1475 -119.6833 331° Northwest 441 507 36,000  Level Oakland Center
Sat 02:54:23 PM 40.2569 -119.7631 331° Northwest 436 502 36,000  Level Oakland Center
Sat 02:55:22 PM 40.3639 -119.8403 332° Northwest 441 507 36,000  Level Oakland Center
Sat 02:56:22 PM 40.4708 -119.9147 330° Northwest 441 507 36,000  Level Oakland Center
Sat 02:57:22 PM 40.5819 -119.9978 331° Northwest 441 507 36,000  Level Oakland Center
Sat 02:57:52 PM 40.6178 -120.0236 331° Northwest 443 510 36,000  Level Seattle Center
Sat 02:58:53 PM 40.7256 -120.1019 331° Northwest 443 510 36,000  Level Seattle Center
Sat 02:59:55 PM 40.8333 -120.1803 331° Northwest 443 510 36,000  Level Seattle Center
Sat 03:00:56 PM 40.9619 -120.2758 331° Northwest 443 510 36,000  Level Seattle Center
Sat 03:01:57 PM 41.0700 -120.3547 333° Northwest 443 510 36,000  Level Seattle Center
Sat 03:02:58 PM 41.1839 -120.4322 330° Northwest 454 522 36,000  Level Seattle Center
Sat 03:04:00 PM 41.2922 -120.5142 331° Northwest 451 519 36,000  Level Seattle Center
Sat 03:05:01 PM 41.4008 -120.5950 331° Northwest 449 517 36,000  Level Seattle Center
Sat 03:06:02 PM 41.5097 -120.6764 330° Northwest 449 517 36,000  Level Seattle Center
Sat 03:07:03 PM 41.6158 -120.7575 331° Northwest 444 511 36,000  Level Seattle Center
Sat 03:08:05 PM 41.7242 -120.8389 330° Northwest 446 513 36,000  Level Seattle Center
Sat 03:09:06 PM 41.8303 -120.9200 331° Northwest 442 509 36,000  Level Seattle Center
Sat 03:10:07 PM 41.9361 -121.0003 331° Northwest 440 506 36,000  Level Seattle Center
Sat 03:11:08 PM 42.0631 -121.0961 330° Northwest 439 505 36,000  Level Seattle Center
Sat 03:12:10 PM 42.1669 -121.1758 330° Northwest 435 501 36,000  Level Seattle Center
Sat 03:13:11 PM 42.2756 -121.2597 330° Northwest 450 518 36,000  Level Seattle Center
Sat 03:14:12 PM 42.3819 -121.3431 330° Northwest 448 516 36,000  Level Seattle Center
Sat 03:15:13 PM 42.4883 -121.4250 332° Northwest 444 511 36,000  Level Seattle Center
Sat 03:16:15 PM 42.5939 -121.5022 329° Northwest 439 505 36,000  Level Seattle Center
Sat 03:17:16 PM 42.6989 -121.5872 331° Northwest 440 506 36,000  Level Seattle Center
Sat 03:18:17 PM 42.8075 -121.6703 330° Northwest 446 513 36,000  Level Seattle Center
Sat 03:19:18 PM 42.9350 -121.7722 329° Northwest 445 512 36,000  Level Seattle Center
Sat 03:20:20 PM 43.0419 -121.8589 330° Northwest 448 516 36,000  Level Seattle Center
Sat 03:21:21 PM 43.1489 -121.9428 330° Northwest 446 513 36,000  Level Seattle Center
Sat 03:22:22 PM 43.2564 -122.0281 330° Northwest 447 514 36,000  Level Seattle Center
Sat 03:23:23 PM 43.3683 -122.1153 330° Northwest 449 517 36,000  Level Seattle Center
Sat 03:24:25 PM 43.4758 -122.2008 329° Northwest 448 516 36,000  Level Seattle Center
Sat 03:25:26 PM 43.5814 -122.2889 330° Northwest 446 513 36,000 -98 Level Seattle Center
Sat 03:26:27 PM 43.6883 -122.3742 330° Northwest 446 513 35,800 -1,131 Descending Seattle Center
Sat 03:27:28 PM 43.7958 -122.4614 330° Northwest 447 514 33,700 -2,146 Descending Seattle Center
Sat 03:28:30 PM 43.9025 -122.5481 329° Northwest 447 514 31,400 -2,488 Descending Seattle Center
Sat 03:29:31 PM 44.0289 -122.6528 330° Northwest 445 512 28,600 -2,459 Descending Seattle Center
Sat 03:30:32 PM 44.1344 -122.7381 359° North 442 509 26,400 -2,213 Descending Seattle Center
Sat 03:31:33 PM 44.2575 -122.7397 North 450 518 24,100 -2,293 Descending Seattle Center
Sat 03:32:35 PM 44.3819 -122.7294 North 452 520 21,700 -2,293 Descending Seattle Center
Sat 03:33:36 PM 44.5044 -122.7161 North 449 517 19,400 -2,115 Descending Seattle Center
Sat 03:34:37 PM 44.6236 -122.7047 North 441 507 17,400 -2,114 Descending Seattle Center
Sat 03:35:21 PM 44.7131 -122.6922 North 415 478 15,700 -2,217 Descending Seattle Center
Sat 03:36:09 PM 44.8064 -122.6872 North 392 451 14,000 -1,823 Descending Seattle Center
Sat 03:36:40 PM 44.8439 -122.6836 North 406 467 13,300 -1,574 Descending Seattle Center
Sat 03:37:10 PM 44.9097 -122.6775 North 377 434 12,400 -1,279 Descending Seattle Center
Sat 03:37:41 PM 44.9628 -122.6725 North 375 432 12,000 -885 Descending Seattle Center
Sat 03:38:11 PM 45.0019 -122.6672 North 331 381 11,500 -1,180 Descending Seattle Center
Sat 03:38:42 PM 45.0503 -122.6614 North 333 383 10,800 -978 Descending Seattle Center
Sat 03:39:43 PM 45.1358 -122.6531 North 317 365 10,000 -488 Descending Seattle Center
Sat 03:40:45 PM 45.2192 -122.6439 North 307 353 9,800 -829 Descending Seattle Center
Sat 03:41:46 PM 45.3019 -122.6353 357° North 303 349 8,300 -1,475 Descending Seattle Center
Sat 03:42:47 PM 45.3819 -122.6408 327° Northwest 301 346 6,800 -1,642 Descending Seattle Center
Sat 03:43:21 PM 45.4289 -122.6839 328° Northwest 283 326 5,700 -1,149 Descending Seattle Center
Sat 03:44:21 PM 45.4933 -122.7403 321° Northwest 261 300 5,000 -347 Descending Seattle Center
Sat 03:45:22 PM 45.5450 -122.7994 319° Northwest 234 269 5,000 -234 Level Seattle Center
Sat 03:46:29 PM 45.5953 -122.8628 319° Northwest 224 258 4,500 -472 Descending Seattle Center
Sat 03:47:29 PM 45.6392 -122.9169 19° North 211 243 4,000 -291 Descending Seattle Center
Sat 03:48:12 PM 45.6744 -122.8997 84° East 205 236 4,000 -212 Level Seattle Center
Sat 03:48:54 PM 45.6783 -122.8492 113° Southeast 198 228 3,700 -816 Descending Seattle Center
Sat 03:49:55 PM 45.6594 -122.7864 113° Southeast 185 213 2,600 -1,082 Descending Seattle Center

Login

Don't have an account? Register now (free) for customized features, flight alerts, and more!